Time;durP1;ratioP1;P1;durP2;ratioP2;P2;SDS_P1;SDS_P2;PMS_P1;PMS_P2;Temp;Humidity;BMP_temperature;BMP_pressure;BME280_temperature;BME280_humidity;BME280_pressure;Samples;Min_cycle;Max_cycle;Signal;HPM_P1;HPM_P2
2020/12/24 00:01:02;;;;;;;0.83;0.77;;;9.60;99.90;;;;;;4950874;29;20547;-67
2020/12/24 00:03:28;;;;;;;0.93;0.70;;;9.50;99.90;;;;;;4951458;28;20208;-66
2020/12/24 00:05:54;;;;;;;1.17;1.07;;;9.50;99.90;;;;;;4951524;29;20331;-66
2020/12/24 00:08:21;;;;;;;1.23;0.80;;;9.40;99.90;;;;;;4950824;28;20596;-66
2020/12/24 00:10:47;;;;;;;0.80;0.70;;;9.40;99.90;;;;;;4951527;29;20161;-66
2020/12/24 00:13:12;;;;;;;2.70;0.90;;;9.50;99.90;;;;;;4951154;29;20427;-67
2020/12/24 00:15:38;;;;;;;2.00;1.40;;;9.40;99.90;;;;;;4951490;29;20802;-66
2020/12/24 00:18:03;;;;;;;0.70;0.70;;;9.50;99.90;;;;;;4950952;28;20204;-66
2020/12/24 00:20:29;;;;;;;0.60;0.53;;;9.50;99.90;;;;;;4951445;29;20260;-67
2020/12/24 00:22:54;;;;;;;1.63;1.10;;;9.40;99.90;;;;;;4951039;29;20184;-66
2020/12/24 00:25:20;;;;;;;1.10;0.70;;;9.40;99.90;;;;;;4951247;29;20295;-66
2020/12/24 00:27:46;;;;;;;0.80;0.73;;;9.40;99.90;;;;;;4950345;29;20679;-66
2020/12/24 00:30:11;;;;;;;2.23;0.80;;;9.40;99.90;;;;;;4951089;29;20321;-66
2020/12/24 00:32:37;;;;;;;1.03;0.90;;;9.40;99.90;;;;;;4950950;29;20682;-67
2020/12/24 00:35:05;;;;;;;2.67;1.03;;;9.30;99.90;;;;;;4950877;28;20187;-66
2020/12/24 00:37:31;;;;;;;2.43;0.50;;;9.30;99.90;;;;;;4950710;29;20411;-66
2020/12/24 00:39:56;;;;;;;0.93;0.80;;;9.40;99.90;;;;;;4950339;28;20428;-66
2020/12/24 00:42:22;;;;;;;0.93;0.80;;;9.40;99.90;;;;;;4951169;29;20565;-66
2020/12/24 00:44:47;;;;;;;1.40;0.90;;;9.40;99.90;;;;;;4951203;29;20177;-67
2020/12/24 00:47:13;;;;;;;0.90;0.70;;;9.40;99.90;;;;;;4951116;29;20275;-66
2020/12/24 00:49:38;;;;;;;2.93;0.87;;;9.40;99.90;;;;;;4950777;29;20173;-66
2020/12/24 00:52:04;;;;;;;0.60;0.50;;;9.30;99.90;;;;;;4951011;29;20189;-66
2020/12/24 00:54:30;;;;;;;2.10;0.57;;;9.20;99.90;;;;;;4950643;29;20185;-68
2020/12/24 00:56:55;;;;;;;0.70;0.60;;;9.20;99.90;;;;;;4950238;29;20648;-65
2020/12/24 00:59:21;;;;;;;1.70;0.80;;;9.10;99.90;;;;;;4950225;29;20199;-66
2020/12/24 01:01:46;;;;;;;2.10;0.70;;;9.10;99.90;;;;;;4950371;28;20269;-66
2020/12/24 01:04:12;;;;;;;1.80;0.70;;;9.10;99.90;;;;;;4950210;29;20224;-66
2020/12/24 01:06:38;;;;;;;1.63;1.00;;;9.10;99.90;;;;;;4950070;29;20535;-66
2020/12/24 01:09:04;;;;;;;1.63;0.80;;;9.00;99.90;;;;;;4949969;29;20543;-66
2020/12/24 01:11:31;;;;;;;1.43;0.70;;;9.00;99.90;;;;;;4950291;28;20177;-66
2020/12/24 01:13:57;;;;;;;1.87;0.77;;;9.00;99.90;;;;;;4950152;29;20509;-66
2020/12/24 01:16:23;;;;;;;1.37;0.70;;;8.90;99.90;;;;;;4950488;29;20893;-68
2020/12/24 01:18:48;;;;;;;0.97;0.90;;;8.90;99.90;;;;;;4949619;28;20225;-67
2020/12/24 01:21:14;;;;;;;2.70;0.80;;;8.90;99.90;;;;;;4949663;28;20236;-67
2020/12/24 01:23:40;;;;;;;2.83;1.00;;;8.90;99.90;;;;;;4949970;29;20192;-66
2020/12/24 01:26:07;;;;;;;1.47;0.90;;;8.80;99.90;;;;;;4950205;29;20208;-66
2020/12/24 01:28:33;;;;;;;3.10;1.10;;;8.80;99.90;;;;;;4949367;28;20779;-68
2020/12/24 01:30:59;;;;;;;3.63;1.00;;;8.90;99.90;;;;;;4950025;29;20914;-67
2020/12/24 01:33:25;;;;;;;1.60;0.83;;;8.90;99.90;;;;;;4950234;28;20173;-66
2020/12/24 01:35:51;;;;;;;0.70;0.60;;;8.90;99.90;;;;;;4950000;29;20181;-67
2020/12/24 01:38:16;;;;;;;1.47;0.60;;;9.00;99.90;;;;;;4949939;29;20464;-67
2020/12/24 01:40:42;;;;;;;1.37;0.90;;;8.90;99.90;;;;;;4950020;29;20180;-66
2020/12/24 01:43:07;;;;;;;0.80;0.70;;;8.90;99.90;;;;;;4950066;29;20271;-67
2020/12/24 01:45:33;;;;;;;3.03;2.93;;;8.90;99.90;;;;;;4949787;29;20184;-66
2020/12/24 01:47:59;;;;;;;1.03;0.80;;;8.80;99.90;;;;;;4949648;29;20197;-66
2020/12/24 01:50:25;;;;;;;1.53;0.90;;;8.80;99.90;;;;;;4949547;28;20674;-67
2020/12/24 01:52:51;;;;;;;1.30;1.10;;;8.80;99.90;;;;;;4949746;28;20588;-66
2020/12/24 01:55:18;;;;;;;1.20;0.77;;;8.80;99.90;;;;;;4949735;28;20436;-66
2020/12/24 01:57:43;;;;;;;1.20;0.70;;;8.90;99.90;;;;;;4949194;29;20212;-66
2020/12/24 02:00:10;;;;;;;1.93;0.90;;;8.90;99.90;;;;;;4949446;29;20859;-66
2020/12/24 02:02:37;;;;;;;1.07;0.73;;;8.80;99.90;;;;;;4949628;29;20421;-66
2020/12/24 02:05:03;;;;;;;0.70;0.50;;;8.80;99.90;;;;;;4949823;29;20842;-67
2020/12/24 02:07:29;;;;;;;0.70;0.70;;;8.80;99.90;;;;;;4949192;29;20467;-67
2020/12/24 02:09:55;;;;;;;0.70;0.70;;;8.80;99.90;;;;;;4949445;28;20792;-66
2020/12/24 02:12:20;;;;;;;1.87;0.67;;;8.80;99.90;;;;;;4949618;29;20212;-66
2020/12/24 02:14:47;;;;;;;0.97;0.80;;;8.70;99.90;;;;;;4949646;29;20217;-66
2020/12/24 02:17:12;;;;;;;1.03;0.80;;;8.70;99.90;;;;;;4949391;29;20211;-67
2020/12/24 02:19:40;;;;;;;0.83;0.70;;;8.60;99.90;;;;;;4948933;29;20796;-65
2020/12/24 02:22:06;;;;;;;3.03;0.80;;;8.50;99.90;;;;;;4949545;28;20181;-66
2020/12/24 02:24:32;;;;;;;1.23;0.80;;;8.50;99.90;;;;;;4949219;29;20424;-66
2020/12/24 02:26:58;;;;;;;1.10;0.50;;;8.40;99.90;;;;;;4949412;29;20468;-66
2020/12/24 02:29:24;;;;;;;3.10;0.90;;;8.40;99.90;;;;;;4948909;29;20424;-67
2020/12/24 02:31:50;;;;;;;1.93;0.57;;;8.40;99.90;;;;;;4951208;28;20537;-65
2020/12/24 02:34:17;;;;;;;0.70;0.50;;;8.40;99.90;;;;;;4953280;28;20425;-66
2020/12/24 02:36:42;;;;;;;1.83;0.60;;;8.30;99.90;;;;;;4953483;29;21110;-66
2020/12/24 02:39:08;;;;;;;3.20;0.73;;;8.30;99.90;;;;;;4952821;28;20472;-66
2020/12/24 02:41:34;;;;;;;1.03;0.60;;;8.30;99.90;;;;;;4953062;29;20181;-66
2020/12/24 02:44:00;;;;;;;0.70;0.60;;;8.20;99.90;;;;;;4952927;29;20428;-67
2020/12/24 02:46:25;;;;;;;1.10;0.70;;;8.20;99.90;;;;;;4952717;29;20690;-65
2020/12/24 02:48:51;;;;;;;1.80;0.60;;;8.20;99.90;;;;;;4952484;29;20197;-66
2020/12/24 02:51:16;;;;;;;2.30;1.53;;;8.20;99.90;;;;;;4952517;29;20256;-65
2020/12/24 02:53:42;;;;;;;1.03;0.70;;;8.20;99.90;;;;;;4952915;29;20209;-67
2020/12/24 02:56:07;;;;;;;1.70;1.00;;;8.20;99.90;;;;;;4951277;29;20189;-66
2020/12/24 02:58:33;;;;;;;0.70;0.50;;;8.20;99.90;;;;;;4952149;28;20333;-66
2020/12/24 03:00:58;;;;;;;0.83;0.60;;;8.20;99.90;;;;;;4952719;29;20188;-66
2020/12/24 03:03:25;;;;;;;3.67;0.80;;;8.20;99.90;;;;;;4952388;29;20690;-66
2020/12/24 03:05:51;;;;;;;1.43;0.70;;;8.20;99.90;;;;;;4952651;28;20555;-66
2020/12/24 03:08:17;;;;;;;0.77;0.60;;;8.20;99.90;;;;;;4951931;29;20856;-66
2020/12/24 03:10:42;;;;;;;1.93;0.70;;;8.30;99.90;;;;;;4952653;29;20515;-66
2020/12/24 03:13:08;;;;;;;0.60;0.50;;;8.30;99.90;;;;;;4952280;28;20201;-65
2020/12/24 03:15:33;;;;;;;0.70;0.60;;;8.20;99.90;;;;;;4952321;29;20177;-66
2020/12/24 03:17:59;;;;;;;0.80;0.80;;;8.20;99.90;;;;;;4951722;29;20760;-66
2020/12/24 03:20:24;;;;;;;1.27;0.60;;;8.20;99.90;;;;;;4952100;29;20654;-66
2020/12/24 03:22:50;;;;;;;1.00;0.60;;;8.20;99.90;;;;;;4952359;29;20212;-65
2020/12/24 03:25:15;;;;;;;1.37;0.60;;;8.20;99.90;;;;;;4952281;29;20181;-66
2020/12/24 03:27:41;;;;;;;0.63;0.50;;;8.10;99.90;;;;;;4951802;29;20238;-68
2020/12/24 03:30:08;;;;;;;0.97;0.60;;;8.10;99.90;;;;;;4952088;29;20181;-67
2020/12/24 03:32:33;;;;;;;0.90;0.60;;;8.10;99.90;;;;;;4952132;28;20466;-68
2020/12/24 03:34:59;;;;;;;0.83;0.50;;;8.10;99.90;;;;;;4951607;28;20431;-67
2020/12/24 03:37:24;;;;;;;1.23;0.57;;;8.00;99.90;;;;;;4951597;29;20243;-67
2020/12/24 03:39:50;;;;;;;1.97;0.97;;;8.00;99.90;;;;;;4951386;29;20437;-67
2020/12/24 03:42:15;;;;;;;1.40;0.60;;;8.00;99.90;;;;;;4951335;29;20169;-67
2020/12/24 03:44:41;;;;;;;0.53;0.50;;;8.00;99.90;;;;;;4950976;28;20682;-68
2020/12/24 03:47:06;;;;;;;0.90;0.63;;;8.00;99.90;;;;;;4951270;29;20238;-68
2020/12/24 03:49:32;;;;;;;1.07;0.50;;;7.90;99.90;;;;;;4951505;29;20586;-67
2020/12/24 03:51:58;;;;;;;0.90;0.50;;;7.90;99.90;;;;;;4951269;29;20197;-67
2020/12/24 03:54:23;;;;;;;0.70;0.70;;;7.90;99.90;;;;;;4951600;29;20177;-68
2020/12/24 03:56:49;;;;;;;1.30;0.63;;;7.90;99.90;;;;;;4951162;29;20207;-67
2020/12/24 03:59:14;;;;;;;4.00;0.50;;;7.80;99.90;;;;;;4950884;29;20223;-68
2020/12/24 04:01:40;;;;;;;1.23;0.70;;;7.80;99.90;;;;;;4951452;29;20266;-67
2020/12/24 04:04:05;;;;;;;0.83;0.50;;;7.80;99.90;;;;;;4951319;29;20287;-68
2020/12/24 04:06:31;;;;;;;0.90;0.60;;;7.80;99.90;;;;;;4951330;29;20842;-67
2020/12/24 04:08:56;;;;;;;1.63;0.70;;;7.80;99.90;;;;;;4950732;29;20201;-67
2020/12/24 04:11:22;;;;;;;1.20;0.70;;;7.80;99.90;;;;;;4951642;29;20644;-68
2020/12/24 04:13:47;;;;;;;1.00;0.57;;;7.70;99.90;;;;;;4950936;29;20169;-68
2020/12/24 04:16:13;;;;;;;0.70;0.60;;;7.70;99.90;;;;;;4951264;29;20185;-67
2020/12/24 04:18:38;;;;;;;0.50;0.50;;;7.70;99.90;;;;;;4950692;29;20208;-66
2020/12/24 04:21:04;;;;;;;0.70;0.70;;;7.80;99.90;;;;;;4950832;29;20188;-66
2020/12/24 04:23:29;;;;;;;1.90;0.60;;;7.80;99.90;;;;;;4950979;29;20550;-67
2020/12/24 04:25:55;;;;;;;2.70;0.70;;;7.80;99.90;;;;;;4950599;29;20212;-66
2020/12/24 04:28:20;;;;;;;0.50;0.50;;;7.80;99.90;;;;;;4950477;29;20201;-66
2020/12/24 04:30:46;;;;;;;2.47;0.87;;;7.80;99.90;;;;;;4951015;29;20184;-66
2020/12/24 04:33:12;;;;;;;0.73;0.63;;;7.80;99.90;;;;;;4950960;29;20671;-66
2020/12/24 04:35:38;;;;;;;1.33;0.80;;;7.70;99.90;;;;;;4950621;28;20177;-67
2020/12/24 04:38:04;;;;;;;0.67;0.67;;;7.60;99.90;;;;;;4950272;29;20992;-66
2020/12/24 04:40:30;;;;;;;0.50;0.40;;;7.60;99.90;;;;;;4950746;28;20181;-68
2020/12/24 04:42:56;;;;;;;0.90;0.60;;;7.50;99.90;;;;;;4950757;29;20427;-67
2020/12/24 04:45:23;;;;;;;0.87;0.60;;;7.50;99.90;;;;;;4950849;28;20252;-66
2020/12/24 04:47:56;;;;;;;0.50;0.50;;;7.60;99.90;;;;;;4949963;29;20468;-66
2020/12/24 04:50:24;;;;;;;0.70;0.53;;;7.50;99.90;;;;;;4950629;29;20474;-66
2020/12/24 04:52:50;;;;;;;0.83;0.60;;;7.60;99.90;;;;;;4950163;29;20731;-66
2020/12/24 04:55:16;;;;;;;0.80;0.63;;;7.50;99.90;;;;;;4949651;28;20843;-66
2020/12/24 04:57:42;;;;;;;4.03;0.57;;;7.50;99.90;;;;;;4949750;29;20207;-66
2020/12/24 05:00:09;;;;;;;1.43;0.50;;;7.50;99.90;;;;;;4950588;28;20544;-66
2020/12/24 05:02:34;;;;;;;2.10;0.70;;;7.50;99.90;;;;;;4948922;29;20820;-67
2020/12/24 05:05:03;;;;;;;4.10;1.33;;;7.40;99.90;;;;;;4950046;29;20424;-66
2020/12/24 05:07:29;;;;;;;1.20;0.50;;;7.30;99.90;;;;;;4950261;29;20212;-68
2020/12/24 05:09:54;;;;;;;0.60;0.60;;;7.30;99.90;;;;;;4949703;29;21005;-67
2020/12/24 05:12:30;;;;;;;1.00;0.50;;;7.20;99.90;;;;;;4950329;29;20177;-66
2020/12/24 05:14:56;;;;;;;0.80;0.60;;;7.20;99.90;;;;;;4949800;28;20177;-66
2020/12/24 05:17:23;;;;;;;2.57;0.50;;;7.20;99.90;;;;;;4949889;29;20462;-66
2020/12/24 05:20:03;;;;;;;1.53;0.60;;;7.10;99.90;;;;;;4949348;29;20759;-66
2020/12/24 05:22:29;;;;;;;3.60;0.70;;;7.00;99.90;;;;;;4949899;28;21260;-66
2020/12/24 05:25:11;;;;;;;0.97;0.50;;;7.00;99.90;;;;;;4949559;29;20420;-67
2020/12/24 05:27:40;;;;;;;1.33;0.50;;;7.00;99.90;;;;;;4970951;23;20279;-70
2020/12/24 05:30:05;;;;;;;1.13;0.50;;;6.90;99.90;;;;;;4950462;28;20926;-69
2020/12/24 05:32:32;;;;;;;1.63;0.87;;;6.90;99.90;;;;;;4950066;28;20409;-70
2020/12/24 05:35:08;;;;;;;3.60;0.60;;;6.90;99.90;;;;;;4950022;29;20224;-69
2020/12/24 05:37:34;;;;;;;1.63;0.50;;;6.80;99.90;;;;;;4949253;29;20440;-68
2020/12/24 05:40:16;;;;;;;0.60;0.60;;;6.80;99.90;;;;;;4949449;28;20793;-70
2020/12/24 05:42:59;;;;;;;0.90;0.50;;;6.80;99.90;;;;;;4949646;28;20181;-71
2020/12/24 05:45:32;;;;;;;1.13;0.80;;;6.70;99.90;;;;;;4949757;28;20420;-70
2020/12/24 05:48:17;;;;;;;3.50;0.70;;;6.70;99.90;;;;;;4948804;28;20566;-71
2020/12/24 05:50:43;;;;;;;3.70;0.80;;;6.70;99.90;;;;;;4949582;29;20475;-70
2020/12/24 05:53:19;;;;;;;1.50;0.67;;;6.70;99.90;;;;;;4949501;29;20432;-69
2020/12/24 05:55:45;;;;;;;1.17;0.70;;;6.80;99.90;;;;;;4949799;29;20554;-69
2020/12/24 05:58:11;;;;;;;1.43;0.97;;;6.70;99.90;;;;;;4949009;29;20515;-69
2020/12/24 06:00:41;;;;;;;1.60;1.00;;;6.70;99.90;;;;;;4950240;28;20224;-70
2020/12/24 06:03:16;;;;;;;1.60;1.17;;;6.70;99.90;;;;;;4948435;28;20437;-69
2020/12/24 06:05:55;;;;;;;0.93;0.80;;;6.70;99.90;;;;;;4948433;28;20511;-70
2020/12/24 06:08:29;;;;;;;0.77;0.77;;;6.60;99.90;;;;;;4953284;29;20444;-69
2020/12/24 06:11:03;;;;;;;1.63;0.80;;;6.60;99.90;;;;;;4953537;28;20977;-70
2020/12/24 06:13:34;;;;;;;1.00;0.70;;;6.60;99.90;;;;;;4953708;28;20424;-70
2020/12/24 06:16:04;;;;;;;1.30;0.80;;;6.70;99.90;;;;;;4953728;29;20482;-70
2020/12/24 06:18:31;;;;;;;2.03;0.70;;;6.70;99.90;;;;;;4952881;28;20922;-68
2020/12/24 06:20:59;;;;;;;1.70;1.40;;;6.70;99.90;;;;;;4951688;28;20432;-70
2020/12/24 06:23:26;;;;;;;2.33;1.53;;;6.80;99.90;;;;;;4953027;28;20973;-70
2020/12/24 06:25:56;;;;;;;4.03;1.10;;;6.80;99.90;;;;;;4952674;28;20463;-70
2020/12/24 06:28:23;;;;;;;1.00;0.90;;;6.80;99.90;;;;;;4952631;28;20428;-68
2020/12/24 06:30:50;;;;;;;1.93;0.90;;;6.80;99.90;;;;;;4953297;28;21014;-70
2020/12/24 06:33:26;;;;;;;1.10;0.70;;;6.80;99.90;;;;;;4953168;28;20425;-70
2020/12/24 06:35:52;;;;;;;2.63;0.80;;;6.90;99.90;;;;;;4953196;28;20477;-69
2020/12/24 06:38:18;;;;;;;2.57;1.30;;;6.90;99.90;;;;;;4952012;29;20512;-70
2020/12/24 06:40:44;;;;;;;1.63;0.80;;;6.90;99.90;;;;;;4951726;29;20176;-69
2020/12/24 06:43:10;;;;;;;1.00;0.77;;;6.90;99.90;;;;;;4952893;29;20468;-70
2020/12/24 06:45:40;;;;;;;2.20;1.13;;;6.90;99.90;;;;;;4953197;28;20184;-70
2020/12/24 06:48:12;;;;;;;4.00;1.00;;;6.90;99.90;;;;;;4952572;28;20512;-70
2020/12/24 06:50:39;;;;;;;5.03;1.23;;;6.90;99.90;;;;;;4954026;29;20794;-70
2020/12/24 06:53:23;;;;;;;1.83;1.37;;;6.90;99.90;;;;;;4953518;28;20922;-70
2020/12/24 06:56:25;;;;;;;2.30;0.80;;;6.90;99.90;;;;;;4953598;29;20447;-70
2020/12/24 06:58:59;;;;;;;5.00;1.43;;;6.90;99.90;;;;;;4948111;28;20774;-69
2020/12/24 07:01:30;;;;;;;1.87;0.80;;;6.90;99.90;;;;;;4954022;28;20420;-70
2020/12/24 07:04:00;;;;;;;2.40;1.20;;;6.90;99.90;;;;;;4953920;28;20424;-71
2020/12/24 07:06:41;;;;;;;0.97;0.67;;;6.90;99.90;;;;;;4952362;29;20554;-70
2020/12/24 07:09:19;;;;;;;1.47;0.80;;;6.90;99.90;;;;;;4953043;29;20496;-70
2020/12/24 07:11:49;;;;;;;1.00;0.67;;;6.90;99.90;;;;;;4953699;29;20818;-69
2020/12/24 07:14:30;;;;;;;2.07;0.77;;;6.90;99.90;;;;;;4952928;28;20425;-69
2020/12/24 07:16:57;;;;;;;1.37;0.83;;;6.90;99.90;;;;;;4953958;29;20436;-70
2020/12/24 07:19:23;;;;;;;2.07;1.13;;;7.00;99.90;;;;;;4952359;28;20992;-70
2020/12/24 07:21:51;;;;;;;1.60;1.10;;;6.90;99.90;;;;;;4953124;28;20948;-70
2020/12/24 07:24:29;;;;;;;2.00;0.93;;;6.90;99.90;;;;;;4953882;28;20428;-68
2020/12/24 07:26:56;;;;;;;2.10;1.10;;;7.00;99.90;;;;;;4953415;28;20468;-70
2020/12/24 07:29:23;;;;;;;5.53;1.43;;;7.00;99.90;;;;;;4952498;28;20507;-70
2020/12/24 07:31:53;;;;;;;3.23;0.80;;;7.00;99.90;;;;;;4953143;28;20783;-70
2020/12/24 07:34:26;;;;;;;2.20;1.33;;;7.10;99.90;;;;;;4953325;28;20428;-70
2020/12/24 07:36:52;;;;;;;3.67;1.60;;;7.10;99.90;;;;;;4953453;28;20519;-69
2020/12/24 07:39:18;;;;;;;3.97;1.87;;;7.10;99.90;;;;;;4953146;28;20568;-70
2020/12/24 07:41:44;;;;;;;2.73;1.43;;;7.10;99.90;;;;;;4952912;29;20486;-70
2020/12/24 07:44:10;;;;;;;2.77;0.90;;;7.20;99.90;;;;;;4951479;29;20554;-70
2020/12/24 07:46:36;;;;;;;2.10;1.00;;;7.30;99.90;;;;;;4952076;28;20482;-70
2020/12/24 07:49:03;;;;;;;3.37;1.20;;;7.30;99.90;;;;;;4951095;29;20430;-69
2020/12/24 07:51:32;;;;;;;3.57;1.43;;;7.40;99.90;;;;;;4952111;28;20774;-69
2020/12/24 07:54:25;;;;;;;5.10;1.87;;;7.50;99.90;;;;;;4951887;28;20427;-69
2020/12/24 07:56:51;;;;;;;3.90;2.30;;;7.60;99.90;;;;;;4948917;28;20919;-70
2020/12/24 07:59:17;;;;;;;3.13;1.43;;;7.60;99.90;;;;;;4950592;28;20866;-70
2020/12/24 08:01:43;;;;;;;1.40;0.90;;;7.70;99.90;;;;;;4951981;28;20464;-70
2020/12/24 08:04:08;;;;;;;2.53;1.33;;;7.70;99.90;;;;;;4952057;29;20309;-70
2020/12/24 08:06:35;;;;;;;5.60;1.93;;;7.70;99.90;;;;;;4951300;29;20295;-70
2020/12/24 08:09:16;;;;;;;8.10;1.50;;;7.70;99.90;;;;;;4951355;28;20192;-71
2020/12/24 08:11:50;;;;;;;4.27;1.37;;;7.80;99.90;;;;;;4952092;28;20424;-71
2020/12/24 08:14:20;;;;;;;4.27;1.83;;;7.80;99.90;;;;;;4952904;28;20427;-70
2020/12/24 08:16:46;;;;;;;7.80;1.70;;;7.90;99.90;;;;;;4951595;28;20440;-71
2020/12/24 08:19:18;;;;;;;3.53;1.10;;;7.90;99.90;;;;;;4951218;29;20428;-70
2020/12/24 08:22:02;;;;;;;6.57;1.43;;;8.00;99.90;;;;;;4951565;28;20930;-71
2020/12/24 08:24:30;;;;;;;5.63;2.00;;;8.00;99.90;;;;;;4951775;29;20487;-69
2020/12/24 08:26:57;;;;;;;3.57;1.17;;;7.90;99.90;;;;;;4951114;28;20476;-70
2020/12/24 08:29:23;;;;;;;4.17;1.30;;;7.90;99.90;;;;;;4950322;28;20495;-70
2020/12/24 08:31:50;;;;;;;3.67;1.17;;;7.80;99.90;;;;;;4951445;28;20428;-70
2020/12/24 08:34:16;;;;;;;1.80;0.90;;;7.80;99.90;;;;;;4951134;29;20949;-71
2020/12/24 08:36:46;;;;;;;3.00;1.00;;;7.80;99.90;;;;;;4950805;29;20459;-70
2020/12/24 08:39:14;;;;;;;2.03;0.90;;;7.70;99.90;;;;;;4950143;28;20267;-69
2020/12/24 08:41:41;;;;;;;1.23;0.73;;;7.70;99.90;;;;;;4951339;28;20851;-70
2020/12/24 08:44:07;;;;;;;2.07;0.77;;;7.60;99.90;;;;;;4951428;29;20484;-69
2020/12/24 08:46:33;;;;;;;2.00;0.90;;;7.50;99.90;;;;;;4951455;28;20507;-69
2020/12/24 08:49:25;;;;;;;1.80;1.13;;;7.50;99.90;;;;;;4951038;28;20991;-70
2020/12/24 08:52:07;;;;;;;1.13;0.80;;;7.40;99.90;;;;;;4951580;28;20480;-69
2020/12/24 08:54:32;;;;;;;3.27;0.93;;;7.50;99.90;;;;;;4949833;28;21257;-69
2020/12/24 08:57:00;;;;;;;2.53;1.13;;;7.50;99.90;;;;;;4951552;29;20499;-69
2020/12/24 08:59:25;;;;;;;1.73;0.70;;;7.60;99.90;;;;;;4951372;28;20280;-69
2020/12/24 09:01:51;;;;;;;1.13;0.60;;;7.60;99.90;;;;;;4952038;29;20609;-71
2020/12/24 09:04:17;;;;;;;0.97;0.60;;;7.70;99.90;;;;;;4952446;29;20189;-69
2020/12/24 09:06:44;;;;;;;0.90;0.60;;;7.70;99.90;;;;;;4952126;29;20216;-70
2020/12/24 09:09:26;;;;;;;2.90;1.03;;;7.70;99.90;;;;;;4951707;28;20447;-71
2020/12/24 09:11:53;;;;;;;1.47;0.97;;;7.70;99.90;;;;;;4953312;29;20427;-70
2020/12/24 09:14:23;;;;;;;1.27;1.00;;;7.70;99.90;;;;;;4952322;28;20416;-69
2020/12/24 09:17:01;;;;;;;2.20;1.10;;;7.80;99.90;;;;;;4952445;28;20491;-69
2020/12/24 09:19:27;;;;;;;1.60;1.13;;;7.80;99.90;;;;;;4952862;28;20432;-69
2020/12/24 09:21:57;;;;;;;1.27;0.90;;;7.80;99.90;;;;;;4953051;29;20431;-70
2020/12/24 09:24:24;;;;;;;4.20;1.37;;;8.00;99.90;;;;;;4952245;28;20185;-70
2020/12/24 09:26:52;;;;;;;1.37;0.70;;;8.20;99.90;;;;;;4951035;28;20479;-70
2020/12/24 09:29:19;;;;;;;2.20;0.90;;;8.40;99.90;;;;;;4949849;28;20544;-70
2020/12/24 09:31:53;;;;;;;0.87;0.60;;;8.20;99.90;;;;;;4950976;28;20424;-68
2020/12/24 09:34:18;;;;;;;1.50;1.00;;;8.00;99.90;;;;;;4949654;28;20480;-70
2020/12/24 09:36:47;;;;;;;3.57;1.07;;;7.90;99.90;;;;;;4949630;29;20460;-70
2020/12/24 09:39:12;;;;;;;2.30;1.13;;;7.90;99.90;;;;;;4949314;28;20266;-69
2020/12/24 09:41:42;;;;;;;1.67;0.80;;;7.90;99.90;;;;;;4949723;28;20444;-69
2020/12/24 09:44:08;;;;;;;1.90;1.00;;;7.90;99.90;;;;;;4951121;28;20590;-69
2020/12/24 09:46:33;;;;;;;2.07;1.10;;;7.90;99.90;;;;;;4951841;29;20472;-69
2020/12/24 09:48:59;;;;;;;0.80;0.70;;;8.00;99.90;;;;;;4951150;29;20264;-71
2020/12/24 09:51:24;;;;;;;5.13;1.67;;;8.00;99.90;;;;;;4951463;29;20228;-70
2020/12/24 09:53:50;;;;;;;2.10;0.90;;;8.00;99.90;;;;;;4951620;29;20189;-70
2020/12/24 09:56:19;;;;;;;4.37;0.90;;;8.00;99.90;;;;;;4951334;29;20197;-70
2020/12/24 09:58:44;;;;;;;2.87;1.00;;;8.10;99.90;;;;;;4950856;29;20192;-70
2020/12/24 10:01:10;;;;;;;2.20;1.00;;;8.10;99.90;;;;;;4951227;29;20424;-68
2020/12/24 10:03:36;;;;;;;2.03;1.00;;;8.20;99.90;;;;;;4951755;28;20188;-70
2020/12/24 10:06:01;;;;;;;3.70;0.90;;;8.20;99.90;;;;;;4951135;29;20201;-70
2020/12/24 10:08:27;;;;;;;1.37;0.70;;;8.30;99.90;;;;;;4949767;29;20204;-70
2020/12/24 10:10:52;;;;;;;1.93;0.90;;;8.30;99.90;;;;;;4951724;29;20184;-69
2020/12/24 10:13:18;;;;;;;1.50;1.40;;;8.40;99.90;;;;;;4951275;29;20272;-70
2020/12/24 10:15:46;;;;;;;2.00;0.97;;;8.40;99.90;;;;;;4951551;29;20177;-71
2020/12/24 10:18:12;;;;;;;2.20;1.13;;;8.40;99.90;;;;;;4950404;29;20185;-70
2020/12/24 10:20:37;;;;;;;1.00;0.90;;;8.40;99.90;;;;;;4951288;29;20898;-70
2020/12/24 10:23:03;;;;;;;2.20;1.07;;;8.40;99.90;;;;;;4951075;29;20180;-70
2020/12/24 10:25:28;;;;;;;1.43;0.97;;;8.30;99.90;;;;;;4951028;29;20239;-71
2020/12/24 10:27:54;;;;;;;4.30;0.90;;;8.40;99.90;;;;;;4950400;29;20220;-69
2020/12/24 10:30:20;;;;;;;1.90;0.93;;;8.60;99.90;;;;;;4950625;29;20179;-69
2020/12/24 10:32:45;;;;;;;1.50;0.70;;;8.80;99.90;;;;;;4949717;29;20183;-71
2020/12/24 10:35:11;;;;;;;2.00;0.80;;;9.00;99.90;;;;;;4950593;29;20181;-70
2020/12/24 10:37:36;;;;;;;1.27;0.80;;;9.10;99.90;;;;;;4949581;29;20632;-70
2020/12/24 10:40:04;;;;;;;2.40;0.63;;;9.20;99.90;;;;;;4950364;29;20180;-70
2020/12/24 10:42:29;;;;;;;2.30;0.97;;;9.10;99.90;;;;;;4951384;28;20280;-72
2020/12/24 10:44:55;;;;;;;2.40;1.13;;;9.00;99.90;;;;;;4950980;29;20978;-71
2020/12/24 10:47:20;;;;;;;1.50;0.90;;;9.00;99.90;;;;;;4950679;29;20686;-67
2020/12/24 10:49:46;;;;;;;3.30;1.10;;;9.00;99.90;;;;;;4950291;29;20181;-69
2020/12/24 10:52:12;;;;;;;2.77;1.03;;;9.00;99.90;;;;;;4952157;28;20176;-68
2020/12/24 10:54:38;;;;;;;1.13;0.90;;;9.10;99.90;;;;;;4954485;28;20192;-71
2020/12/24 10:57:04;;;;;;;0.83;0.80;;;9.20;99.90;;;;;;4952947;29;20827;-70
2020/12/24 10:59:29;;;;;;;1.20;1.00;;;9.10;99.90;;;;;;4954129;29;20181;-71
2020/12/24 11:01:55;;;;;;;3.20;1.67;;;9.10;99.90;;;;;;4954540;29;20183;-69
2020/12/24 11:04:20;;;;;;;1.37;0.90;;;9.20;99.90;;;;;;4954493;29;20187;-71
2020/12/24 11:06:46;;;;;;;1.20;1.10;;;9.20;99.90;;;;;;4954493;29;20209;-69
2020/12/24 11:09:14;;;;;;;1.50;1.10;;;9.40;99.90;;;;;;4953830;29;20207;-70
2020/12/24 11:11:41;;;;;;;1.10;0.80;;;9.60;99.90;;;;;;4954068;28;20235;-71
2020/12/24 11:14:07;;;;;;;2.00;0.90;;;9.80;99.90;;;;;;4954710;28;20436;-70
2020/12/24 11:16:33;;;;;;;0.90;0.80;;;10.10;99.90;;;;;;4953705;29;20439;-71
2020/12/24 11:18:59;;;;;;;0.87;0.87;;;10.30;99.90;;;;;;4953773;28;20682;-70
2020/12/24 11:21:24;;;;;;;1.27;0.90;;;10.50;99.90;;;;;;4954204;28;20420;-71
2020/12/24 11:23:50;;;;;;;1.03;0.70;;;10.70;99.90;;;;;;4967883;28;20180;-70
2020/12/24 11:26:23;;;;;;;0.90;0.80;;;10.70;99.90;;;;;;4974202;23;20245;-66
2020/12/24 11:28:50;;;;;;;1.73;0.63;;;10.50;99.90;;;;;;4951044;28;20232;-66
2020/12/24 11:31:29;;;;;;;0.90;0.70;;;10.80;99.90;;;;;;4951685;28;20937;-67
2020/12/24 11:33:55;;;;;;;1.40;1.13;;;12.10;99.90;;;;;;4951437;28;20519;-67
2020/12/24 11:36:21;;;;;;;0.80;0.63;;;13.80;99.90;;;;;;4951556;28;20761;-67
2020/12/24 11:38:47;;;;;;;1.43;1.00;;;14.30;99.90;;;;;;4950756;29;20529;-67
2020/12/24 11:41:15;;;;;;;1.90;1.43;;;15.10;99.90;;;;;;4951238;28;20814;-67
2020/12/24 11:43:41;;;;;;;1.93;1.43;;;16.40;99.90;;;;;;4951522;29;20428;-67
2020/12/24 11:46:09;;;;;;;1.30;0.90;;;16.70;99.90;;;;;;4951409;29;20440;-67
2020/12/24 11:48:35;;;;;;;1.10;1.00;;;15.80;99.90;;;;;;4951018;29;20436;-67
2020/12/24 11:51:00;;;;;;;1.83;1.30;;;16.10;99.90;;;;;;4951628;29;20500;-67
2020/12/24 11:53:26;;;;;;;1.23;0.93;;;14.90;99.90;;;;;;4951679;29;20252;-67
2020/12/24 11:55:51;;;;;;;1.00;1.00;;;14.60;99.90;;;;;;4951460;29;20181;-67
2020/12/24 11:58:17;;;;;;;1.63;1.53;;;14.60;99.90;;;;;;4950818;28;20236;-67
2020/12/24 12:00:43;;;;;;;0.90;0.90;;;14.50;99.90;;;;;;4951472;29;20192;-67
2020/12/24 12:03:09;;;;;;;1.80;1.27;;;14.30;99.90;;;;;;4950904;29;20437;-67
2020/12/24 12:05:34;;;;;;;1.53;1.30;;;13.90;99.90;;;;;;4950413;28;20436;-67
2020/12/24 12:08:00;;;;;;;1.50;1.33;;;13.90;99.90;;;;;;4949945;29;20215;-67
2020/12/24 12:10:26;;;;;;;1.17;1.00;;;13.90;99.90;;;;;;4950780;29;20643;-67
2020/12/24 12:12:51;;;;;;;2.20;1.30;;;14.50;99.90;;;;;;4950918;28;20223;-67
2020/12/24 12:15:17;;;;;;;0.90;0.90;;;14.20;99.90;;;;;;4951089;29;20180;-67
2020/12/24 12:17:42;;;;;;;1.33;0.97;;;14.30;99.90;;;;;;4949990;29;20687;-67
2020/12/24 12:20:08;;;;;;;0.80;0.80;;;14.40;99.90;;;;;;4950776;29;20208;-67
2020/12/24 12:22:33;;;;;;;1.17;0.80;;;14.80;99.90;;;;;;4950941;29;20192;-67
2020/12/24 12:24:59;;;;;;;2.47;1.73;;;14.90;99.90;;;;;;4950892;29;20181;-67
2020/12/24 12:27:24;;;;;;;1.00;0.90;;;15.00;99.90;;;;;;4950296;29;20221;-67
2020/12/24 12:29:51;;;;;;;2.40;1.07;;;14.60;99.90;;;;;;4949871;29;20173;-67
2020/12/24 12:32:17;;;;;;;0.80;0.80;;;14.60;99.90;;;;;;4950884;29;20173;-67
2020/12/24 12:34:42;;;;;;;0.90;0.80;;;15.10;99.90;;;;;;4950132;29;20450;-67
2020/12/24 12:37:08;;;;;;;0.70;0.70;;;14.10;99.90;;;;;;4950653;29;20204;-66
2020/12/24 12:39:33;;;;;;;2.03;0.90;;;12.50;99.90;;;;;;4949599;29;20189;-67
2020/12/24 12:42:00;;;;;;;0.80;0.80;;;12.30;99.90;;;;;;4950497;29;20231;-67
2020/12/24 12:44:25;;;;;;;0.93;0.80;;;12.80;99.90;;;;;;4950646;28;20635;-67
2020/12/24 12:46:51;;;;;;;0.80;0.80;;;12.70;99.90;;;;;;4949935;29;20471;-66
2020/12/24 12:49:16;;;;;;;1.07;0.83;;;11.90;99.90;;;;;;4949500;29;20173;-66
2020/12/24 12:51:42;;;;;;;0.70;0.70;;;11.10;99.90;;;;;;4950044;29;20240;-66
2020/12/24 12:54:08;;;;;;;0.90;0.90;;;10.90;99.90;;;;;;4950242;29;20204;-66
2020/12/24 12:56:34;;;;;;;1.90;0.80;;;10.80;99.90;;;;;;4949943;29;20287;-67